createdAt,value
2018-07-08T00:02:07.734Z,101637.75
2018-07-08T00:04:36.571Z,101640.67
2018-07-08T00:07:05.215Z,101649.87
2018-07-08T00:09:33.837Z,101637.13
2018-07-08T00:12:02.513Z,101641.73
2018-07-08T00:14:32.176Z,101639.91
2018-07-08T00:17:00.823Z,101641.39
2018-07-08T00:19:29.471Z,101639.55
2018-07-08T00:21:58.170Z,101642.58
2018-07-08T00:24:26.936Z,101649.02
2018-07-08T00:26:55.595Z,101642.69
2018-07-08T00:29:24.308Z,101644.17
2018-07-08T00:31:53.014Z,101647.80
2018-07-08T00:34:21.872Z,101652.28
2018-07-08T00:36:50.530Z,101654.80
2018-07-08T00:39:19.323Z,101650.58
2018-07-08T00:41:47.953Z,101653.17
2018-07-08T00:44:16.594Z,101651.50
2018-07-08T00:46:45.308Z,101653.53
2018-07-08T00:49:13.963Z,101653.64
2018-07-08T00:51:42.607Z,101651.13
2018-07-08T00:54:11.190Z,101649.16
2018-07-08T00:56:39.951Z,101652.30
2018-07-08T00:59:08.609Z,101654.37
2018-07-08T01:01:37.467Z,101653.96
2018-07-08T01:04:06.160Z,101651.66
2018-07-08T01:06:34.764Z,101653.84
2018-07-08T01:09:03.474Z,101651.06
2018-07-08T01:11:32.162Z,101645.95
2018-07-08T01:14:00.821Z,101638.17
2018-07-08T01:16:29.466Z,101644.98
2018-07-08T01:18:58.104Z,101649.19
2018-07-08T01:24:01.509Z,101647.36
2018-07-08T01:26:30.178Z,101661.85
2018-07-08T01:28:58.908Z,101658.59
2018-07-08T01:31:27.582Z,101656.14
2018-07-08T01:33:56.206Z,101660.23
2018-07-08T01:36:24.796Z,101660.00
2018-07-08T01:38:53.426Z,101653.30
2018-07-08T01:41:22.568Z,101658.39
2018-07-08T01:43:51.297Z,101657.75
2018-07-08T01:46:20.110Z,101663.31
2018-07-08T01:48:48.731Z,101660.87
2018-07-08T01:51:17.448Z,101670.53
2018-07-08T01:53:46.204Z,101672.55
2018-07-08T01:56:14.789Z,101676.52
2018-07-08T01:58:44.386Z,101663.80
2018-07-08T02:01:13.052Z,101670.81
2018-07-08T02:03:41.686Z,101673.95
2018-07-08T02:06:10.419Z,101671.67
2018-07-08T02:08:39.025Z,101668.16
2018-07-08T02:11:07.679Z,101669.83
2018-07-08T02:13:36.713Z,101677.81
2018-07-08T02:16:05.505Z,101676.86
2018-07-08T02:18:34.096Z,101677.71
2018-07-08T02:21:02.755Z,101679.62
2018-07-08T02:23:31.404Z,101680.00
2018-07-08T02:26:00.081Z,101675.73
2018-07-08T02:28:28.842Z,101683.72
2018-07-08T02:30:57.529Z,101680.48
2018-07-08T02:33:26.170Z,101675.63
2018-07-08T02:35:55.179Z,101680.10
2018-07-08T02:38:23.851Z,101682.02
2018-07-08T02:40:52.656Z,101681.16
2018-07-08T02:43:21.304Z,101681.91
2018-07-08T02:45:50.699Z,101682.02
2018-07-08T02:48:19.402Z,101681.16
2018-07-08T02:50:48.053Z,101683.98
2018-07-08T02:53:16.720Z,101680.20
2018-07-08T02:55:45.316Z,101677.06
2018-07-08T02:58:13.888Z,101684.56
2018-07-08T03:00:42.600Z,101678.13
2018-07-08T03:03:11.237Z,101681.33
2018-07-08T03:05:40.194Z,101684.70
2018-07-08T03:08:08.839Z,101680.61
2018-07-08T03:10:37.479Z,101678.66
2018-07-08T03:13:06.339Z,101684.97
2018-07-08T03:15:35.019Z,101686.09
2018-07-08T03:18:03.792Z,101677.98
2018-07-08T03:20:32.407Z,101687.19
2018-07-08T03:23:01.025Z,101680.22
2018-07-08T03:25:29.650Z,101675.98
2018-07-08T03:27:58.264Z,101673.11
2018-07-08T03:30:26.881Z,101681.70
2018-07-08T03:32:55.518Z,101672.92
2018-07-08T03:35:24.328Z,101674.86
2018-07-08T03:37:53.116Z,101678.53
2018-07-08T03:40:21.792Z,101683.12
2018-07-08T03:42:54.392Z,101678.55
2018-07-08T03:45:23.197Z,101681.44
2018-07-08T03:47:51.834Z,101682.08
2018-07-08T03:50:20.468Z,101687.80
2018-07-08T03:52:49.185Z,101683.11
2018-07-08T03:55:17.846Z,101683.92
2018-07-08T03:57:46.535Z,101683.02
2018-07-08T04:00:15.149Z,101685.69
2018-07-08T04:02:44.003Z,101680.86
2018-07-08T04:05:12.808Z,101682.45
2018-07-08T04:07:41.465Z,101684.27
2018-07-08T04:10:10.170Z,101684.77
2018-07-08T04:12:38.858Z,101677.52
2018-07-08T04:15:07.678Z,101675.70
2018-07-08T04:17:36.454Z,101675.22
2018-07-08T04:20:05.068Z,101674.48
2018-07-08T04:22:33.803Z,101669.22
2018-07-08T04:25:02.651Z,101671.52
2018-07-08T04:27:31.400Z,101678.56
2018-07-08T04:30:00.133Z,101671.67
2018-07-08T04:32:28.912Z,101660.42
2018-07-08T04:34:57.526Z,101662.23
2018-07-08T04:37:26.392Z,101661.27
2018-07-08T04:39:55.088Z,101664.30
2018-07-08T04:42:23.718Z,101657.51
2018-07-08T04:44:52.398Z,101653.76
2018-07-08T04:47:20.974Z,101656.16
2018-07-08T04:49:49.766Z,101661.27
2018-07-08T04:52:18.500Z,101654.47
2018-07-08T04:54:47.215Z,101664.67
2018-07-08T04:57:16.063Z,101660.66
2018-07-08T04:59:44.743Z,101665.88
2018-07-08T05:02:13.352Z,101661.24
2018-07-08T05:04:42.241Z,101661.80
2018-07-08T05:07:10.961Z,101661.70
2018-07-08T05:09:40.187Z,101658.41
2018-07-08T05:12:08.901Z,101660.47
2018-07-08T05:14:37.602Z,101665.80
2018-07-08T05:17:06.212Z,101663.11
2018-07-08T05:19:34.821Z,101664.06
2018-07-08T05:22:03.507Z,101669.47
2018-07-08T05:24:32.248Z,101656.41
2018-07-08T05:27:00.820Z,101670.38
2018-07-08T05:29:29.428Z,101665.12
2018-07-08T05:31:57.992Z,101666.30
2018-07-08T05:34:26.694Z,101660.34
2018-07-08T05:36:55.410Z,101667.27
2018-07-08T05:39:24.022Z,101668.56
2018-07-08T05:41:52.675Z,101672.41
2018-07-08T05:44:21.653Z,101669.82
2018-07-08T05:46:50.418Z,101656.55
2018-07-08T05:49:19.590Z,101661.05
2018-07-08T05:51:48.377Z,101663.45
2018-07-08T05:54:17.106Z,101658.50
2018-07-08T05:56:45.773Z,101663.35
2018-07-08T05:59:14.440Z,101648.77
2018-07-08T06:01:43.052Z,101662.98
2018-07-08T06:04:11.695Z,101654.92
2018-07-08T06:06:40.354Z,101653.17
2018-07-08T06:09:08.969Z,101657.30
2018-07-08T06:11:37.604Z,101656.03
2018-07-08T06:14:06.346Z,101661.31
2018-07-08T06:16:34.972Z,101660.05
2018-07-08T06:19:03.794Z,101514.56
2018-07-08T06:21:32.566Z,101655.44
2018-07-08T06:24:01.292Z,101635.55
2018-07-08T06:26:29.919Z,101652.42
2018-07-08T06:28:58.613Z,101643.25
2018-07-08T06:31:27.376Z,101636.56
2018-07-08T06:33:56.306Z,101635.28
2018-07-08T06:36:25.052Z,101661.01
2018-07-08T06:38:53.804Z,101642.57
2018-07-08T06:41:22.553Z,101643.09
2018-07-08T06:43:51.162Z,101644.73
2018-07-08T06:46:19.784Z,101633.59
2018-07-08T06:48:48.590Z,101633.30
2018-07-08T06:51:17.208Z,101638.98
2018-07-08T06:53:45.891Z,101637.59
2018-07-08T06:56:14.543Z,101637.67
2018-07-08T06:58:43.303Z,101635.85
2018-07-08T07:01:12.139Z,101628.25
2018-07-08T07:03:41.308Z,101627.61
2018-07-08T07:06:10.025Z,101626.70
2018-07-08T07:08:38.693Z,101620.68
2018-07-08T07:11:07.399Z,101634.09
2018-07-08T07:13:36.056Z,101622.92
2018-07-08T07:16:05.017Z,101623.77
2018-07-08T07:18:33.624Z,101632.30
2018-07-08T07:21:02.432Z,101632.08
2018-07-08T07:23:31.135Z,101634.83
2018-07-08T07:25:59.734Z,101630.22
2018-07-08T07:28:28.491Z,101631.22
2018-07-08T07:30:57.136Z,101632.77
2018-07-08T07:33:25.928Z,101628.75
2018-07-08T07:35:54.566Z,101653.08
2018-07-08T07:38:23.323Z,101631.97
2018-07-08T07:40:52.042Z,101625.86
2018-07-08T07:43:20.923Z,101631.41
2018-07-08T07:45:49.774Z,101622.30
2018-07-08T07:48:18.619Z,101614.55
2018-07-08T07:50:47.266Z,101620.19
2018-07-08T07:53:15.859Z,101620.66
2018-07-08T07:55:44.543Z,101626.98
2018-07-08T07:58:13.207Z,101627.80
2018-07-08T08:00:41.917Z,101626.25
2018-07-08T08:03:10.642Z,101630.10
2018-07-08T08:05:39.357Z,101616.92
2018-07-08T08:08:08.074Z,101620.19
2018-07-08T08:10:36.634Z,101619.44
2018-07-08T08:13:05.357Z,101620.41
2018-07-08T08:15:34.077Z,101606.98
2018-07-08T08:18:02.720Z,101618.02
2018-07-08T08:20:31.355Z,101608.80
2018-07-08T08:22:59.993Z,101610.51
2018-07-08T08:25:28.765Z,101608.73
2018-07-08T08:27:57.393Z,101613.23
2018-07-08T08:30:26.144Z,101612.87
2018-07-08T08:32:54.938Z,101609.14
2018-07-08T08:35:23.597Z,101603.63
2018-07-08T08:37:54.262Z,101596.92
2018-07-08T08:40:26.010Z,101598.02
2018-07-08T08:42:55.180Z,101596.63
2018-07-08T08:45:25.235Z,101594.98
2018-07-08T08:47:54.094Z,101596.88
2018-07-08T08:50:22.846Z,101591.94
2018-07-08T08:52:51.854Z,101599.25
2018-07-08T08:55:20.598Z,101589.91
2018-07-08T08:57:49.423Z,101591.30
2018-07-08T09:00:19.137Z,101581.72
2018-07-08T09:02:47.879Z,101587.48
2018-07-08T09:05:16.563Z,101583.75
2018-07-08T09:07:45.211Z,101579.71
2018-07-08T09:10:13.865Z,101581.95
2018-07-08T09:12:42.652Z,101577.27
2018-07-08T09:15:11.310Z,101571.84
2018-07-08T09:17:40.080Z,101571.02
2018-07-08T09:20:08.714Z,101583.11
2018-07-08T09:22:37.470Z,101580.52
2018-07-08T09:25:12.861Z,101577.63
2018-07-08T09:27:41.727Z,101567.30
2018-07-08T09:30:10.421Z,101565.87
2018-07-08T09:32:39.094Z,101561.34
2018-07-08T09:35:07.740Z,101569.00
2018-07-08T09:37:36.427Z,101566.77
2018-07-08T09:40:04.991Z,101573.32
2018-07-08T09:42:33.722Z,101567.44
2018-07-08T09:45:02.459Z,101569.13
2018-07-08T09:47:31.111Z,101569.49
2018-07-08T09:49:59.752Z,101571.68
2018-07-08T09:52:28.403Z,101563.97
2018-07-08T09:54:57.077Z,101549.47
2018-07-08T09:57:25.717Z,101569.73
2018-07-08T09:59:54.438Z,101569.37
2018-07-08T10:02:23.515Z,101565.99
2018-07-08T10:04:52.154Z,101570.22
2018-07-08T10:07:20.862Z,101562.27
2018-07-08T10:09:49.535Z,101555.91
2018-07-08T10:12:18.185Z,101553.08
2018-07-08T10:14:46.889Z,101555.76
2018-07-08T10:17:15.579Z,101552.33
2018-07-08T10:19:44.682Z,101558.18
2018-07-08T10:22:13.284Z,101556.13
2018-07-08T10:24:41.986Z,101552.89
2018-07-08T10:28:15.066Z,101554.18
2018-07-08T10:30:44.080Z,101544.91
2018-07-08T10:33:12.772Z,101541.50
2018-07-08T10:35:53.772Z,101541.50
2018-07-08T10:38:22.566Z,101546.95
2018-07-08T10:40:51.223Z,101540.37
2018-07-08T10:43:19.936Z,101540.80
2018-07-08T10:45:48.627Z,101544.80
2018-07-08T10:48:17.722Z,101547.64
2018-07-08T10:50:46.519Z,101541.41
2018-07-08T10:53:15.090Z,101544.04
2018-07-08T10:55:44.330Z,101539.25
2018-07-08T10:58:13.260Z,101543.43
2018-07-08T11:00:41.902Z,101539.13
2018-07-08T11:03:10.588Z,101538.09
2018-07-08T11:05:39.469Z,101542.10
2018-07-08T11:08:08.128Z,101543.52
2018-07-08T11:10:36.896Z,101536.95
2018-07-08T11:13:05.619Z,101537.52
2018-07-08T11:15:34.291Z,101537.28
2018-07-08T11:18:02.900Z,101532.11
2018-07-08T11:20:31.650Z,101524.66
2018-07-08T11:23:00.420Z,101519.19
2018-07-08T11:25:29.075Z,101522.09
2018-07-08T11:27:58.270Z,101520.73
2018-07-08T11:30:26.886Z,101518.23
2018-07-08T11:32:55.625Z,101518.47
2018-07-08T11:35:24.268Z,101510.53
2018-07-08T11:37:52.831Z,101512.00
2018-07-08T11:40:21.491Z,101506.41
2018-07-08T11:42:50.208Z,101501.20
2018-07-08T11:45:18.798Z,101500.61
2018-07-08T11:47:47.382Z,101495.28
2018-07-08T11:50:16.054Z,101498.23
2018-07-08T11:52:44.838Z,101504.05
2018-07-08T11:55:13.561Z,101508.55
2018-07-08T11:57:42.330Z,101505.59
2018-07-08T12:00:10.965Z,101502.61
2018-07-08T12:02:39.665Z,101505.02
2018-07-08T12:05:08.398Z,101501.96
2018-07-08T12:07:36.974Z,101505.59
2018-07-08T12:10:05.677Z,101506.40
2018-07-08T12:12:34.342Z,101496.58
2018-07-08T12:15:02.972Z,101492.41
2018-07-08T12:17:31.639Z,101492.15
2018-07-08T12:20:00.273Z,101493.54
2018-07-08T12:22:28.880Z,101485.98
2018-07-08T12:24:57.593Z,101483.91
2018-07-08T12:27:26.382Z,101484.81
2018-07-08T12:29:55.201Z,101484.20
2018-07-08T12:32:23.872Z,101483.31
2018-07-08T12:34:52.458Z,101487.00
2018-07-08T12:37:21.075Z,101474.47
2018-07-08T12:39:49.761Z,101473.77
2018-07-08T12:42:18.464Z,101476.89
2018-07-08T12:44:47.063Z,101482.52
2018-07-08T12:47:15.772Z,101465.75
2018-07-08T12:49:44.596Z,101467.66
2018-07-08T12:52:13.920Z,101464.73
2018-07-08T12:54:43.411Z,101466.09
2018-07-08T12:57:13.699Z,101458.84
2018-07-08T12:59:44.031Z,101454.56
2018-07-08T13:02:14.269Z,101460.68
2018-07-08T13:04:44.216Z,101447.04
2018-07-08T13:07:13.496Z,101448.76
2018-07-08T13:09:43.455Z,101448.84
2018-07-08T13:12:12.953Z,101448.47
2018-07-08T13:14:42.208Z,101447.36
2018-07-08T13:17:10.879Z,101452.77
2018-07-08T13:19:39.640Z,101447.56
2018-07-08T13:22:08.386Z,101444.02
2018-07-08T13:24:37.042Z,101439.89
2018-07-08T13:27:05.679Z,101432.47
2018-07-08T13:29:34.343Z,101437.22
2018-07-08T13:32:03.154Z,101439.63
2018-07-08T13:34:31.884Z,101432.84
2018-07-08T13:37:00.670Z,101441.05
2018-07-08T13:39:29.539Z,101438.08
2018-07-08T13:41:58.252Z,101441.03
2018-07-08T13:44:26.989Z,101313.91
2018-07-08T13:46:55.732Z,101436.86
2018-07-08T13:49:24.488Z,101436.70
2018-07-08T13:51:53.163Z,101432.72
2018-07-08T13:54:21.760Z,101432.05
2018-07-08T13:56:50.536Z,101433.67
2018-07-08T13:59:19.158Z,101431.12
2018-07-08T14:01:48.324Z,101429.53
2018-07-08T14:04:16.965Z,101419.52
2018-07-08T14:06:45.605Z,101425.36
2018-07-08T14:09:14.385Z,101421.02
2018-07-08T14:11:43.074Z,101419.25
2018-07-08T14:14:11.762Z,101418.30
2018-07-08T14:16:40.397Z,101416.14
2018-07-08T14:19:09.068Z,101417.37
2018-07-08T14:21:37.802Z,101414.42
2018-07-08T14:24:06.508Z,101415.23
2018-07-08T14:26:35.415Z,101414.78
2018-07-08T14:29:04.074Z,101417.41
2018-07-08T14:31:32.713Z,101413.73
2018-07-08T14:34:01.450Z,101418.02
2018-07-08T14:36:30.205Z,101419.90
2018-07-08T14:38:58.920Z,101421.81
2018-07-08T14:41:27.639Z,101423.97
2018-07-08T14:43:56.274Z,101421.03
2018-07-08T14:46:25.085Z,101425.14
2018-07-08T14:48:53.872Z,101417.28
2018-07-08T14:51:22.552Z,101419.34
2018-07-08T14:53:51.268Z,101414.94
2018-07-08T14:56:19.948Z,101408.77
2018-07-08T14:58:48.686Z,101415.48
2018-07-08T15:01:17.299Z,101410.90
2018-07-08T15:03:45.941Z,101408.38
2018-07-08T15:06:14.673Z,101408.98
2018-07-08T15:08:43.338Z,101414.15
2018-07-08T15:11:12.000Z,101416.29
2018-07-08T15:13:40.752Z,101410.93
2018-07-08T15:16:09.528Z,101414.88
2018-07-08T15:18:38.078Z,101412.45
2018-07-08T15:21:06.744Z,101413.78
2018-07-08T15:23:35.516Z,101406.30
2018-07-08T15:26:04.133Z,101407.70
2018-07-08T15:28:33.007Z,101403.81
2018-07-08T15:31:01.669Z,101401.80
2018-07-08T15:33:30.423Z,101411.12
2018-07-08T15:35:59.386Z,101411.77
2018-07-08T15:38:28.095Z,101414.98
2018-07-08T15:40:56.859Z,101415.84
2018-07-08T15:43:25.582Z,101411.61
2018-07-08T15:45:54.180Z,101420.16
2018-07-08T15:48:22.804Z,101418.94
2018-07-08T15:50:51.659Z,101419.95
2018-07-08T15:53:20.299Z,101412.14
2018-07-08T15:55:48.895Z,101413.33
2018-07-08T15:58:17.572Z,101411.07
2018-07-08T16:03:14.072Z,101398.38
2018-07-08T16:05:42.864Z,101400.89
2018-07-08T16:08:11.587Z,101393.28
2018-07-08T16:10:40.305Z,101391.91
2018-07-08T16:13:09.045Z,101390.22
2018-07-08T16:15:37.692Z,101389.41
2018-07-08T16:18:06.463Z,101384.71
2018-07-08T16:20:35.179Z,101385.02
2018-07-08T16:23:03.861Z,101386.06
2018-07-08T16:25:32.695Z,101383.36
2018-07-08T16:28:01.530Z,101385.27
2018-07-08T16:30:30.229Z,101385.42
2018-07-08T16:32:59.053Z,101379.55
2018-07-08T16:35:28.273Z,101375.00
2018-07-08T16:37:57.756Z,101382.58
2018-07-08T16:40:27.401Z,101375.16
2018-07-08T16:42:57.234Z,101371.98
2018-07-08T16:45:26.956Z,101371.98
2018-07-08T16:47:55.765Z,101374.70
2018-07-08T16:50:24.699Z,101382.63
2018-07-08T16:52:53.445Z,101378.91
2018-07-08T16:55:22.204Z,101378.52
2018-07-08T16:57:50.985Z,101373.83
2018-07-08T17:00:19.647Z,101375.68
2018-07-08T17:02:48.870Z,101379.72
2018-07-08T17:05:18.192Z,101377.52
2018-07-08T17:07:47.414Z,101378.09
2018-07-08T17:10:16.810Z,101378.58
2018-07-08T17:12:45.557Z,101378.41
2018-07-08T17:15:14.499Z,101382.78
2018-07-08T17:17:43.746Z,101376.23
2018-07-08T17:20:12.579Z,101380.43
2018-07-08T17:22:41.207Z,101376.23
2018-07-08T17:25:09.964Z,101373.53
2018-07-08T17:27:38.988Z,101377.55
2018-07-08T17:30:07.901Z,101372.85
2018-07-08T17:32:36.668Z,101372.17
2018-07-08T17:35:05.694Z,101376.39
2018-07-08T17:37:34.469Z,101370.48
2018-07-08T17:40:03.045Z,101371.67
2018-07-08T17:42:31.740Z,101367.81
2018-07-08T17:45:00.453Z,101369.15
2018-07-08T17:47:29.856Z,101366.78
2018-07-08T17:49:58.622Z,101377.39
2018-07-08T17:52:27.501Z,101371.50
2018-07-08T17:54:56.300Z,101367.98
2018-07-08T17:57:24.942Z,101365.64
2018-07-08T17:59:53.624Z,101362.23
2018-07-08T18:02:22.389Z,101364.45
2018-07-08T18:04:51.148Z,101362.44
2018-07-08T18:07:19.858Z,101363.61
2018-07-08T18:09:48.768Z,101360.55
2018-07-08T18:12:17.686Z,101364.25
2018-07-08T18:14:46.341Z,101364.27
2018-07-08T18:17:15.001Z,101365.11
2018-07-08T18:19:43.692Z,101358.73
2018-07-08T18:22:12.353Z,101358.72
2018-07-08T18:24:41.125Z,101357.70
2018-07-08T18:27:10.738Z,101355.34
2018-07-08T18:29:39.420Z,101365.47
2018-07-08T18:32:08.089Z,101361.59
2018-07-08T18:34:36.933Z,101361.93
2018-07-08T18:37:05.564Z,101360.91
2018-07-08T18:39:34.275Z,101361.03
2018-07-08T18:42:02.972Z,101359.70
2018-07-08T18:44:31.658Z,101357.49
2018-07-08T18:47:00.435Z,101360.53
2018-07-08T18:49:29.118Z,101360.02
2018-07-08T18:51:58.019Z,101355.96
2018-07-08T18:54:26.595Z,101357.97
2018-07-08T18:56:55.395Z,101358.45
2018-07-08T18:59:24.390Z,101361.45
2018-07-08T19:01:53.048Z,101361.11
2018-07-08T19:04:21.743Z,101362.77
2018-07-08T19:06:50.499Z,101366.96
2018-07-08T19:09:19.242Z,101370.15
2018-07-08T19:11:48.032Z,101367.93
2018-07-08T19:14:17.026Z,101372.39
2018-07-08T19:16:45.772Z,101371.70
2018-07-08T19:19:14.432Z,101372.34
2018-07-08T19:21:43.795Z,101367.97
2018-07-08T19:24:12.915Z,101379.56
2018-07-08T19:26:42.040Z,101375.14
2018-07-08T19:29:11.275Z,101376.67
2018-07-08T19:31:40.671Z,101373.75
2018-07-08T19:34:09.547Z,101370.66
2018-07-08T19:36:38.240Z,101371.15
2018-07-08T19:39:08.417Z,101370.11
2018-07-08T19:41:38.263Z,101369.27
2018-07-08T19:44:07.139Z,101368.71
2018-07-08T19:46:36.022Z,101368.35
2018-07-08T19:49:05.567Z,101371.04
2018-07-08T19:51:35.292Z,101364.31
2018-07-08T19:54:04.811Z,101370.18
2018-07-08T19:56:34.732Z,101365.26
2018-07-08T19:59:04.149Z,101366.23
2018-07-08T20:01:33.764Z,101364.16
2018-07-08T20:04:02.976Z,101373.84
2018-07-08T20:06:31.878Z,101359.55
2018-07-08T20:09:00.562Z,101366.53
2018-07-08T20:11:29.343Z,101365.44
2018-07-08T20:13:57.947Z,101366.23
2018-07-08T20:16:26.773Z,101372.86
2018-07-08T20:18:56.240Z,101367.09
2018-07-08T20:21:25.200Z,101365.93
2018-07-08T20:23:53.653Z,101369.02
2018-07-08T20:26:22.993Z,101364.50
2018-07-08T20:28:53.033Z,101368.33
2018-07-08T20:31:22.671Z,101364.94
2018-07-08T20:33:52.364Z,101366.60
2018-07-08T20:36:21.633Z,101370.92
2018-07-08T20:38:50.711Z,101361.94
2018-07-08T20:41:19.706Z,101366.19
2018-07-08T20:43:48.640Z,101360.47
2018-07-08T20:46:18.333Z,101368.53
2018-07-08T20:48:47.188Z,101368.42
2018-07-08T20:51:15.945Z,101364.33
2018-07-08T20:53:45.532Z,101368.50
2018-07-08T20:56:15.454Z,101363.42
2018-07-08T20:58:45.348Z,101361.45
2018-07-08T21:01:13.998Z,101361.84
2018-07-08T21:03:42.739Z,101364.88
2018-07-08T21:06:11.420Z,101365.16
2018-07-08T21:08:40.817Z,101363.42
2018-07-08T21:11:09.648Z,101364.77
2018-07-08T21:13:39.192Z,101365.26
2018-07-08T21:16:08.598Z,101362.72
2018-07-08T21:18:37.535Z,101359.16
2018-07-08T21:21:06.285Z,101358.47
2018-07-08T21:23:35.090Z,101359.30
2018-07-08T21:26:03.939Z,101366.47
2018-07-08T21:28:32.722Z,101361.39
2018-07-08T21:31:01.676Z,101361.56
2018-07-08T21:33:30.342Z,101365.93
2018-07-08T21:35:59.698Z,101361.70
2018-07-08T21:38:29.493Z,101368.48
2018-07-08T21:40:58.719Z,101364.67
2018-07-08T21:43:27.529Z,101363.75
2018-07-08T21:45:56.295Z,101359.19
2018-07-08T21:48:24.967Z,101361.16
2018-07-08T21:50:53.580Z,101359.95
2018-07-08T21:53:22.349Z,101358.13
2018-07-08T21:55:51.534Z,101354.61
2018-07-08T21:58:20.259Z,101358.34
2018-07-08T22:01:10.990Z,101356.30
2018-07-08T22:03:40.006Z,101351.16
2018-07-08T22:06:08.581Z,101352.00
2018-07-08T22:08:37.465Z,101347.19
2018-07-08T22:11:07.803Z,101350.85
2018-07-08T22:13:36.925Z,101350.00
2018-07-08T22:16:05.738Z,101346.66
2018-07-08T22:18:34.946Z,101347.98
2018-07-08T22:21:03.990Z,101345.80
2018-07-08T22:23:33.231Z,101349.96
2018-07-08T22:26:02.652Z,101350.59
2018-07-08T22:28:31.528Z,101352.91
2018-07-08T22:31:00.129Z,101348.27
2018-07-08T22:33:28.901Z,101351.08
2018-07-08T22:35:57.456Z,101352.06
2018-07-08T22:38:26.136Z,101352.28
2018-07-08T22:40:54.955Z,101354.83
2018-07-08T22:43:23.692Z,101354.11
2018-07-08T22:45:52.546Z,101351.74
2018-07-08T22:48:21.226Z,101352.02
2018-07-08T22:50:49.846Z,101351.03
2018-07-08T22:53:18.505Z,101346.53
2018-07-08T22:55:47.252Z,101343.19
2018-07-08T22:58:15.903Z,101346.17
2018-07-08T23:00:55.483Z,101346.62
2018-07-08T23:03:55.579Z,101346.75
2018-07-08T23:06:24.211Z,101347.24
2018-07-08T23:08:53.256Z,101346.89
2018-07-08T23:11:22.440Z,101346.18
2018-07-08T23:13:52.220Z,101350.77
2018-07-08T23:16:21.231Z,101346.63
2018-07-08T23:18:49.827Z,101349.66
2018-07-08T23:21:18.426Z,101351.84
2018-07-08T23:23:47.080Z,101353.31
2018-07-08T23:26:15.723Z,101358.66
2018-07-08T23:28:44.411Z,101357.11
2018-07-08T23:31:13.589Z,101358.09
2018-07-08T23:33:42.308Z,101358.53
2018-07-08T23:36:11.460Z,101361.70
2018-07-08T23:38:40.141Z,101363.17
2018-07-08T23:41:09.919Z,101359.37
2018-07-08T23:43:38.603Z,101363.20
2018-07-08T23:46:07.185Z,101361.34
2018-07-08T23:48:35.873Z,101355.98
2018-07-08T23:51:04.554Z,101354.52
2018-07-08T23:53:33.167Z,101357.55
2018-07-08T23:56:01.862Z,101355.98
2018-07-08T23:58:30.775Z,101355.50
